Rawalakot Weather



Rawalakot's Current Weather

Temprature 3o clear sky

clear sky

Rain: 0 %

Min Temprature3o
Max Temprature3o
Humidity70
Wind Speed2.32 m/h
Sun Rise07:08:58
Sun Set17:21:18
Current Time: 18-Jan-2021 06:41:43
Lat/Lon: 33.858, 73.7604




Rawalakot's Geo Location



Rawalakot's Weather Forecast

Time Overall Temp Min Temp Max Temp Humidity Wind Speed Rain
18-Jan-2021 (Mon)
08:00:00 few clouds 3.690 3.690 4.020 68 2.07 m/h 0 %
11:00:00 few clouds 9.200 9.200 10.800 49 1.2 m/h 0 %
14:00:00 clear sky 11.580 11.580 12.140 42 2.31 m/h 0 %
17:00:00 clear sky 8.010 8.010 8.050 57 0.83 m/h 0 %
20:00:00 clear sky 5.060 5.060 5.060 63 2.45 m/h 0 %
23:00:00 clear sky 4.290 4.290 4.290 61 2.66 m/h 0 %
19-Jan-2021 (Tue)
02:00:00 clear sky 3.720 3.720 3.720 61 2.83 m/h 0 %
05:00:00 clear sky 3.180 3.180 3.180 65 3.04 m/h 0 %
08:00:00 clear sky 4.040 4.040 4.040 64 2.95 m/h 0 %
11:00:00 clear sky 12.160 12.160 12.160 37 0.55 m/h 0 %
14:00:00 clear sky 13.250 13.250 13.250 34 1.95 m/h 0 %
17:00:00 clear sky 8.580 8.580 8.580 52 0.61 m/h 0 %
20:00:00 clear sky 5.230 5.230 5.230 59 2.69 m/h 0 %
23:00:00 clear sky 4.500 4.500 4.500 58 2.96 m/h 0 %
20-Jan-2021 (Wed)
02:00:00 clear sky 3.740 3.740 3.740 60 3.17 m/h 0 %
05:00:00 clear sky 3.150 3.150 3.150 65 3.49 m/h 0 %
08:00:00 clear sky 3.730 3.730 3.730 64 3.52 m/h 0 %
11:00:00 clear sky 11.920 11.920 11.920 36 1.67 m/h 0 %
14:00:00 clear sky 13.840 13.840 13.840 32 0.72 m/h 0 %
17:00:00 clear sky 9.110 9.110 9.110 47 0.93 m/h 0 %
20:00:00 broken clouds 5.130 5.130 5.130 55 3.32 m/h 0 %
23:00:00 broken clouds 3.910 3.910 3.910 61 3.74 m/h 0 %
21-Jan-2021 (Thu)
02:00:00 scattered clouds 2.830 2.830 2.830 65 3.94 m/h 0 %
05:00:00 scattered clouds 2.380 2.380 2.380 63 4.08 m/h 0 %
08:00:00 overcast clouds 3.460 3.460 3.460 59 3.89 m/h 0 %
11:00:00 overcast clouds 11.550 11.550 11.550 36 1.62 m/h 0 %
14:00:00 overcast clouds 13.490 13.490 13.490 32 0.72 m/h 0 %
17:00:00 overcast clouds 8.390 8.390 8.390 50 1.48 m/h 0 %
20:00:00 overcast clouds 5.360 5.360 5.360 54 2.5 m/h 0 %
23:00:00 broken clouds 4.900 4.900 4.900 56 2.4 m/h 0 %
22-Jan-2021 (Fri)
02:00:00 few clouds 4.640 4.640 4.640 57 2.54 m/h 0 %
05:00:00 broken clouds 4.670 4.670 4.670 56 2.48 m/h 0 %
08:00:00 overcast clouds 5.370 5.370 5.370 56 2.43 m/h 0 %
11:00:00 broken clouds 12.230 12.230 12.230 36 1.93 m/h 0 %
14:00:00 overcast clouds 12.950 12.950 12.950 37 3.16 m/h 0 %
17:00:00 broken clouds 9.160 9.160 9.160 50 1.91 m/h 0 %
20:00:00 broken clouds 7.420 7.420 7.420 56 1.58 m/h 0 %
23:00:00 broken clouds 5.940 5.940 5.940 61 1.76 m/h 0 %
23-Jan-2021 (Sat)
02:00:00 broken clouds 6.760 6.760 6.760 58 2.41 m/h 0 %
05:00:00 overcast clouds 5.120 5.120 5.120 68 2.86 m/h 0 %

Famous Cities (60)